< < Back
Terminal Aerodrome Forecast


Current Version              Previous Versions:   1  2  3  4  5  6  7  8  9  

Terminal Aerodrome Forecast

648
FTUS44 KMOB 222300
TAFPNS
TAF
KPNS 222330Z 2300/2324 04004KT 6SM -RA BR OVC003
      TEMPO 2300/2303 OVC006
     FM230300 09010KT P6SM OVC005
     FM231100 13012G17KT 5SM -SHRA BR OVC007
     FM231300 15015G25KT 4SM TSRA OVC004CB
     FM232000 20015G25KT P6SM VCSH BKN035=

Latest METAR

583
SAUS70 KWBC 230200 RRN
MTRPNS
METAR KPNS 230153Z 04006KT 8SM -RA OVC006 14/14 A3007 RMK AO2 RAB09 CIG
004V009 SLP186 P0001 T01440144


USA.gov is the U.S. government's official web portal to all federal, state and local government web resources and services.